createdAt,value
2023-04-10T00:01:09.623Z,9.20
2023-04-10T00:03:37.225Z,8.75
2023-04-10T00:06:04.733Z,7.85
2023-04-10T00:08:32.023Z,9.48
2023-04-10T00:10:59.250Z,8.38
2023-04-10T00:13:26.887Z,8.27
2023-04-10T00:15:54.059Z,8.93
2023-04-10T00:18:21.513Z,8.50
2023-04-10T00:20:48.752Z,9.82
2023-04-10T00:23:16.111Z,9.48
2023-04-10T00:25:43.256Z,9.70
2023-04-10T00:28:10.574Z,10.27
2023-04-10T00:30:37.710Z,9.70
2023-04-10T00:33:04.907Z,8.80
2023-04-10T00:35:32.449Z,9.57
2023-04-10T00:37:59.915Z,9.40
2023-04-10T00:40:27.353Z,9.18
2023-04-10T00:42:54.634Z,7.75
2023-04-10T00:45:22.241Z,8.73
2023-04-10T00:47:49.560Z,7.90
2023-04-10T00:50:16.830Z,8.33
2023-04-10T00:52:44.378Z,7.63
2023-04-10T00:55:11.898Z,8.30
2023-04-10T00:57:39.874Z,8.20
2023-04-10T01:00:08.189Z,9.15
2023-04-10T01:02:35.684Z,7.77
2023-04-10T01:05:03.106Z,7.22
2023-04-10T01:07:59.203Z,7.28
2023-04-10T01:10:33.924Z,8.07
2023-04-10T01:13:23.927Z,8.27
2023-04-10T01:16:17.700Z,8.77
2023-04-10T01:18:50.438Z,7.57
2023-04-10T01:21:18.245Z,8.35
2023-04-10T01:24:23.574Z,7.30
2023-04-10T01:27:06.159Z,7.77
2023-04-10T01:29:36.278Z,7.43
2023-04-10T01:32:14.234Z,8.48
2023-04-10T01:34:51.039Z,7.35
2023-04-10T01:37:23.540Z,8.20
2023-04-10T01:40:04.027Z,9.53
2023-04-10T01:42:34.576Z,8.30
2023-04-10T01:45:04.640Z,7.97
2023-04-10T01:47:32.636Z,8.23
2023-04-10T01:50:02.107Z,8.85
2023-04-10T01:52:31.396Z,7.80
2023-04-10T01:55:15.306Z,8.02
2023-04-10T01:57:48.874Z,8.55
2023-04-10T02:00:17.494Z,9.35
2023-04-10T02:02:44.880Z,8.43
2023-04-10T02:05:12.420Z,7.77
2023-04-10T02:08:05.687Z,7.97
2023-04-10T02:10:41.519Z,6.85
2023-04-10T02:13:13.449Z,7.88
2023-04-10T02:15:43.772Z,8.52
2023-04-10T02:18:11.700Z,8.77
2023-04-10T02:20:38.934Z,9.63
2023-04-10T02:23:06.766Z,9.15
2023-04-10T02:25:34.876Z,10.18
2023-04-10T02:28:06.342Z,9.48
2023-04-10T02:30:34.308Z,10.23
2023-04-10T02:33:01.528Z,10.82
2023-04-10T02:35:31.478Z,10.63
2023-04-10T02:37:58.756Z,9.75
2023-04-10T02:40:26.376Z,10.68
2023-04-10T02:43:12.448Z,9.03
2023-04-10T02:45:40.388Z,9.43
2023-04-10T02:48:08.774Z,8.52
2023-04-10T02:50:36.009Z,7.60
2023-04-10T02:53:03.191Z,7.47
2023-04-10T02:55:30.574Z,7.77
2023-04-10T02:57:57.782Z,7.73
2023-04-10T03:00:25.050Z,9.23
2023-04-10T03:03:15.480Z,7.70
2023-04-10T03:05:49.582Z,7.07
2023-04-10T03:08:19.502Z,8.63
2023-04-10T03:10:50.604Z,8.02
2023-04-10T03:13:17.810Z,8.48
2023-04-10T03:15:45.031Z,9.35
2023-04-10T03:18:12.614Z,7.13
2023-04-10T03:20:43.171Z,8.13
2023-04-10T03:23:12.254Z,8.27
2023-04-10T03:25:39.399Z,8.48
2023-04-10T03:28:08.021Z,8.20
2023-04-10T03:30:38.087Z,8.20
2023-04-10T03:33:05.461Z,8.27
2023-04-10T03:35:32.751Z,8.25
2023-04-10T03:38:00.364Z,9.18
2023-04-10T03:40:27.576Z,8.73
2023-04-10T03:42:54.781Z,8.48
2023-04-10T03:45:21.915Z,8.03
2023-04-10T03:47:49.172Z,8.63
2023-04-10T03:50:16.837Z,9.23
2023-04-10T03:52:52.843Z,8.73
2023-04-10T03:55:22.453Z,9.50
2023-04-10T03:57:51.317Z,8.90
2023-04-10T04:00:22.146Z,8.35
2023-04-10T04:02:52.298Z,9.07
2023-04-10T04:05:40.008Z,8.85
2023-04-10T04:08:25.002Z,8.90
2023-04-10T04:11:24.097Z,9.07
2023-04-10T04:14:08.132Z,9.23
2023-04-10T04:17:01.054Z,9.98
2023-04-10T04:19:35.804Z,9.77
2023-04-10T04:22:21.715Z,9.85
2023-04-10T04:25:27.211Z,8.63
2023-04-10T04:27:54.342Z,10.65
2023-04-10T04:30:32.197Z,8.95
2023-04-10T04:33:15.061Z,8.38
2023-04-10T04:36:02.502Z,8.45
2023-04-10T04:38:55.776Z,9.27
2023-04-10T04:41:58.219Z,8.13
2023-04-10T04:44:45.409Z,9.35
2023-04-10T04:47:18.362Z,9.82
2023-04-10T04:49:55.674Z,9.15
2023-04-10T04:52:23.707Z,10.90
2023-04-10T04:55:15.476Z,9.68
2023-04-10T04:58:17.967Z,10.85
2023-04-10T05:01:08.681Z,9.65
2023-04-10T05:03:54.758Z,9.68
2023-04-10T05:06:37.459Z,9.35
2023-04-10T05:09:14.985Z,9.38
2023-04-10T05:11:57.024Z,9.27
2023-04-10T05:14:45.324Z,8.55
2023-04-10T05:17:32.841Z,7.85
2023-04-10T05:20:17.388Z,8.90
2023-04-10T05:22:58.301Z,8.63
2023-04-10T05:26:03.722Z,8.13
2023-04-10T05:28:51.319Z,8.82
2023-04-10T05:31:30.646Z,8.50
2023-04-10T05:34:27.186Z,8.70
2023-04-10T05:37:12.942Z,6.77
2023-04-10T05:39:56.174Z,7.70
2023-04-10T05:42:58.696Z,7.75
2023-04-10T05:45:46.826Z,7.75
2023-04-10T05:48:29.641Z,7.03
2023-04-10T05:51:04.574Z,5.27
2023-04-10T05:53:41.864Z,7.90
2023-04-10T05:56:25.617Z,7.38
2023-04-10T05:59:12.391Z,7.53
2023-04-10T06:01:58.205Z,8.93
2023-04-10T06:04:25.606Z,7.53
2023-04-10T06:06:55.912Z,7.65
2023-04-10T06:09:23.164Z,7.68
2023-04-10T06:11:50.526Z,7.25
2023-04-10T06:14:21.290Z,7.03
2023-04-10T06:16:48.562Z,7.17
2023-04-10T06:19:16.232Z,6.65
2023-04-10T06:21:43.450Z,7.57
2023-04-10T06:24:13.881Z,7.45
2023-04-10T06:26:41.100Z,7.80
2023-04-10T06:29:09.383Z,7.07
2023-04-10T06:31:36.837Z,7.65
2023-04-10T06:34:04.273Z,7.70
2023-04-10T06:36:32.999Z,8.10
2023-04-10T06:39:04.141Z,6.80
2023-04-10T06:41:31.597Z,7.33
2023-04-10T06:44:07.762Z,7.25
2023-04-10T06:46:35.024Z,8.30
2023-04-10T06:49:02.425Z,7.78
2023-04-10T06:51:29.651Z,6.68
2023-04-10T06:53:56.782Z,7.33
2023-04-10T06:56:25.227Z,7.03
2023-04-10T06:58:52.722Z,8.10
2023-04-10T07:01:20.042Z,7.55
2023-04-10T07:03:47.331Z,8.23
2023-04-10T07:06:14.658Z,7.33
2023-04-10T07:08:41.787Z,7.05
2023-04-10T07:11:08.959Z,8.05
2023-04-10T07:13:38.799Z,7.60
2023-04-10T07:16:08.404Z,6.30
2023-04-10T07:18:38.461Z,6.70
2023-04-10T07:21:12.146Z,7.00
2023-04-10T07:23:39.427Z,7.28
2023-04-10T07:26:06.886Z,7.57
2023-04-10T07:28:34.112Z,8.00
2023-04-10T07:31:01.513Z,7.33
2023-04-10T07:33:28.825Z,8.27
2023-04-10T07:35:58.144Z,8.05
2023-04-10T07:38:25.618Z,7.65
2023-04-10T07:40:59.308Z,7.63
2023-04-10T07:43:26.584Z,7.27
2023-04-10T07:45:53.846Z,8.30
2023-04-10T07:48:21.243Z,8.15
2023-04-10T07:50:48.567Z,7.88
2023-04-10T07:53:15.838Z,8.43
2023-04-10T07:55:45.435Z,7.87
2023-04-10T07:58:12.616Z,7.88
2023-04-10T08:00:39.815Z,8.45
2023-04-10T08:03:07.558Z,8.23
2023-04-10T08:05:34.973Z,8.23
2023-04-10T08:08:02.133Z,7.97
2023-04-10T08:10:29.338Z,8.80
2023-04-10T08:12:56.522Z,8.57
2023-04-10T08:15:23.757Z,8.20
2023-04-10T08:17:51.201Z,7.95
2023-04-10T08:20:18.478Z,8.40
2023-04-10T08:22:45.690Z,7.95
2023-04-10T08:25:12.896Z,8.23
2023-04-10T08:27:40.172Z,7.68
2023-04-10T08:30:08.008Z,8.43
2023-04-10T08:32:36.178Z,8.20
2023-04-10T08:35:04.710Z,8.05
2023-04-10T08:37:33.715Z,8.70
2023-04-10T08:40:04.026Z,8.77
2023-04-10T08:42:32.568Z,8.00
2023-04-10T08:45:01.039Z,8.47
2023-04-10T08:47:35.036Z,7.90
2023-04-10T08:50:06.463Z,8.40
2023-04-10T08:52:37.666Z,8.35
2023-04-10T08:55:09.052Z,7.50
2023-04-10T08:58:11.423Z,7.37
2023-04-10T09:00:38.879Z,7.40
2023-04-10T09:03:14.211Z,7.78
2023-04-10T09:05:41.725Z,7.20
2023-04-10T09:08:10.815Z,7.53
2023-04-10T09:10:38.282Z,6.97
2023-04-10T09:13:05.505Z,7.18
2023-04-10T09:16:00.517Z,7.47
2023-04-10T09:18:55.768Z,7.43
2023-04-10T09:21:23.832Z,6.25
2023-04-10T09:24:01.088Z,7.20
2023-04-10T09:26:30.990Z,5.68
2023-04-10T09:30:06.632Z,5.68
2023-04-10T09:33:01.220Z,5.95
2023-04-10T09:35:38.143Z,6.65
2023-04-10T09:38:18.702Z,6.50
2023-04-10T09:40:46.863Z,6.43
2023-04-10T09:43:32.488Z,5.53
2023-04-10T09:46:00.371Z,6.07
2023-04-10T09:48:27.876Z,6.05
2023-04-10T09:50:55.115Z,5.90
2023-04-10T09:53:22.582Z,5.75
2023-04-10T09:55:50.564Z,6.35
2023-04-10T09:58:18.949Z,5.78
2023-04-10T10:00:48.733Z,6.28
2023-04-10T10:03:18.660Z,6.07
2023-04-10T10:05:49.893Z,5.00
2023-04-10T10:08:17.797Z,6.20
2023-04-10T10:10:53.945Z,5.88
2023-04-10T10:13:31.789Z,6.10
2023-04-10T10:16:44.333Z,6.17
2023-04-10T10:19:38.775Z,5.78
2023-04-10T10:22:06.494Z,5.00
2023-04-10T10:24:34.393Z,5.80
2023-04-10T10:27:02.837Z,5.60
2023-04-10T10:29:32.358Z,5.03
2023-04-10T10:32:03.014Z,5.63
2023-04-10T10:34:30.822Z,5.68
2023-04-10T10:36:59.101Z,5.53
2023-04-10T10:39:36.911Z,5.70
2023-04-10T10:42:10.898Z,4.43
2023-04-10T10:44:57.559Z,5.82
2023-04-10T10:47:30.279Z,5.75
2023-04-10T10:49:59.676Z,5.82
2023-04-10T10:56:46.183Z,6.00
2023-04-10T10:59:13.403Z,4.80
2023-04-10T11:02:16.459Z,5.65
2023-04-10T11:04:47.751Z,5.50
2023-04-10T11:07:16.637Z,5.53
2023-04-10T11:09:47.774Z,5.03
2023-04-10T11:12:16.595Z,5.30
2023-04-10T11:14:45.327Z,6.03
2023-04-10T11:17:12.838Z,4.95
2023-04-10T11:20:00.179Z,4.93
2023-04-10T11:22:28.112Z,5.20
2023-04-10T11:25:00.035Z,4.88
2023-04-10T11:27:41.837Z,4.90
2023-04-10T11:30:35.264Z,4.50
2023-04-10T11:33:05.438Z,4.55
2023-04-10T11:35:33.937Z,3.80
2023-04-10T11:38:12.213Z,4.18
2023-04-10T11:40:56.252Z,4.38
2023-04-10T11:43:23.552Z,3.83
2023-04-10T11:45:50.739Z,4.50
2023-04-10T11:48:17.985Z,3.67
2023-04-10T11:50:45.565Z,4.28
2023-04-10T11:53:21.664Z,4.43
2023-04-10T11:55:48.936Z,4.20
2023-04-10T11:58:26.273Z,4.22
2023-04-10T12:01:04.349Z,3.57
2023-04-10T12:03:42.701Z,4.10
2023-04-10T12:06:14.315Z,4.40
2023-04-10T12:08:45.226Z,3.28
2023-04-10T12:11:13.131Z,4.10
2023-04-10T12:13:40.506Z,4.20
2023-04-10T12:16:09.783Z,4.75
2023-04-10T12:18:37.569Z,4.00
2023-04-10T12:21:06.887Z,3.25
2023-04-10T12:23:38.618Z,3.78
2023-04-10T12:26:09.185Z,4.47
2023-04-10T12:28:38.165Z,4.68
2023-04-10T12:31:06.467Z,3.65
2023-04-10T12:33:33.791Z,3.67
2023-04-10T12:36:01.345Z,3.60
2023-04-10T12:38:43.494Z,3.17
2023-04-10T12:41:11.788Z,3.40
2023-04-10T12:43:42.769Z,3.55
2023-04-10T12:46:10.897Z,3.90
2023-04-10T12:48:38.296Z,3.55
2023-04-10T12:51:06.448Z,3.03
2023-04-10T12:53:43.980Z,3.42
2023-04-10T12:56:13.496Z,3.28
2023-04-10T12:58:42.471Z,4.18
2023-04-10T13:01:10.649Z,4.15
2023-04-10T13:03:38.214Z,3.33
2023-04-10T13:06:07.352Z,3.85
2023-04-10T13:08:35.519Z,3.70
2023-04-10T13:11:03.795Z,4.03
2023-04-10T13:13:34.055Z,3.97
2023-04-10T13:16:01.496Z,3.90
2023-04-10T13:18:28.789Z,3.97
2023-04-10T13:20:56.003Z,4.38
2023-04-10T13:23:23.311Z,4.82
2023-04-10T13:25:51.137Z,4.05
2023-04-10T13:28:18.977Z,3.40
2023-04-10T13:30:46.211Z,3.45
2023-04-10T13:33:13.482Z,3.78
2023-04-10T13:35:41.716Z,3.92
2023-04-10T13:38:11.633Z,4.65
2023-04-10T13:40:39.011Z,4.70
2023-04-10T13:43:06.426Z,3.63
2023-04-10T13:45:34.879Z,4.85
2023-04-10T13:48:03.865Z,4.53
2023-04-10T13:50:31.322Z,4.80
2023-04-10T13:52:58.586Z,4.40
2023-04-10T13:55:25.887Z,4.80
2023-04-10T13:57:53.624Z,4.68
2023-04-10T14:00:21.143Z,5.03
2023-04-10T14:02:48.427Z,4.43
2023-04-10T14:05:15.898Z,3.60
2023-04-10T14:07:43.119Z,3.90
2023-04-10T14:10:11.241Z,4.25
2023-04-10T14:12:39.311Z,2.20
2023-04-10T14:15:07.086Z,3.42
2023-04-10T14:17:35.775Z,3.73
2023-04-10T14:20:03.146Z,3.42
2023-04-10T14:22:31.733Z,4.13
2023-04-10T14:25:09.243Z,3.40
2023-04-10T14:27:39.393Z,3.90
2023-04-10T14:30:08.200Z,3.40
2023-04-10T14:32:35.528Z,3.17
2023-04-10T14:35:02.821Z,4.10
2023-04-10T14:37:30.038Z,4.20
2023-04-10T14:39:57.144Z,4.18
2023-04-10T14:42:25.289Z,3.13
2023-04-10T14:44:52.614Z,3.35
2023-04-10T14:47:19.751Z,3.42
2023-04-10T14:49:47.169Z,2.85
2023-04-10T14:52:14.332Z,3.53
2023-04-10T14:54:41.467Z,3.40
2023-04-10T14:57:09.784Z,3.90
2023-04-10T14:59:37.566Z,3.03
2023-04-10T15:02:04.748Z,2.97
2023-04-10T15:04:32.079Z,3.28
2023-04-10T15:07:00.408Z,3.60
2023-04-10T15:09:27.744Z,3.20
2023-04-10T15:11:56.933Z,3.17
2023-04-10T15:14:24.693Z,4.22
2023-04-10T15:16:54.015Z,3.47
2023-04-10T15:19:21.425Z,3.60
2023-04-10T15:21:48.680Z,3.55
2023-04-10T15:24:15.813Z,3.63
2023-04-10T15:26:45.160Z,3.58
2023-04-10T15:29:13.144Z,3.92
2023-04-10T15:31:40.550Z,3.97
2023-04-10T15:34:09.174Z,4.13
2023-04-10T15:36:37.201Z,3.65
2023-04-10T15:39:04.394Z,3.75
2023-04-10T15:41:32.727Z,4.55
2023-04-10T15:44:00.804Z,4.03
2023-04-10T15:46:32.406Z,4.35
2023-04-10T15:49:00.739Z,3.85
2023-04-10T15:51:27.877Z,3.63
2023-04-10T15:53:55.226Z,3.63
2023-04-10T15:56:23.275Z,3.93
2023-04-10T15:58:50.435Z,4.22
2023-04-10T16:01:17.628Z,4.32
2023-04-10T16:03:45.396Z,4.53
2023-04-10T16:06:12.695Z,5.07
2023-04-10T16:08:39.869Z,5.07
2023-04-10T16:11:07.042Z,5.10
2023-04-10T16:13:34.179Z,4.07
2023-04-10T16:16:01.580Z,4.05
2023-04-10T16:18:29.041Z,5.20
2023-04-10T16:20:56.681Z,5.20
2023-04-10T16:23:23.815Z,5.00
2023-04-10T16:25:50.973Z,5.05
2023-04-10T16:28:18.203Z,4.32
2023-04-10T16:30:45.401Z,5.00
2023-04-10T16:33:12.613Z,4.30
2023-04-10T16:35:39.811Z,4.97
2023-04-10T16:38:07.370Z,5.07
2023-04-10T16:40:35.345Z,5.25
2023-04-10T16:43:02.706Z,4.72
2023-04-10T16:45:30.490Z,4.87
2023-04-10T16:47:58.243Z,5.10
2023-04-10T16:50:25.397Z,5.90
2023-04-10T16:52:53.312Z,6.57
2023-04-10T16:55:20.633Z,5.63
2023-04-10T16:57:48.722Z,7.50
2023-04-10T17:00:16.164Z,8.43
2023-04-10T17:02:44.022Z,6.25
2023-04-10T17:05:11.367Z,5.60
2023-04-10T17:07:38.567Z,6.40
2023-04-10T17:10:06.177Z,6.57
2023-04-10T17:12:33.431Z,6.45
2023-04-10T17:15:00.745Z,5.57
2023-04-10T17:17:28.228Z,5.82
2023-04-10T17:19:55.671Z,6.35
2023-04-10T17:22:23.849Z,6.33
2023-04-10T17:24:51.137Z,6.80
2023-04-10T17:27:18.800Z,6.32
2023-04-10T17:29:46.776Z,6.80
2023-04-10T17:32:14.768Z,8.05
2023-04-10T17:34:41.924Z,8.30
2023-04-10T17:37:09.146Z,7.60
2023-04-10T17:39:36.269Z,6.97
2023-04-10T17:42:03.524Z,7.18
2023-04-10T17:44:30.824Z,6.75
2023-04-10T17:46:58.402Z,6.73
2023-04-10T17:49:25.716Z,5.60
2023-04-10T17:51:53.120Z,6.32
2023-04-10T17:54:20.340Z,6.47
2023-04-10T17:56:47.540Z,6.53
2023-04-10T17:59:14.680Z,6.83
2023-04-10T18:01:41.981Z,6.38
2023-04-10T18:04:09.239Z,6.63
2023-04-10T18:06:37.403Z,6.63
2023-04-10T18:09:04.648Z,6.97
2023-04-10T18:11:31.903Z,7.50
2023-04-10T18:13:59.934Z,7.10
2023-04-10T18:16:27.339Z,7.78
2023-04-10T18:18:54.630Z,7.20
2023-04-10T18:21:22.081Z,7.03
2023-04-10T18:23:49.232Z,6.17
2023-04-10T18:26:16.545Z,6.18
2023-04-10T18:28:45.342Z,4.97
2023-04-10T18:31:16.022Z,5.60
2023-04-10T18:33:43.483Z,6.18
2023-04-10T18:36:11.117Z,5.53
2023-04-10T18:38:41.199Z,5.00
2023-04-10T18:41:08.480Z,5.85
2023-04-10T18:47:57.536Z,6.32
2023-04-10T18:50:25.356Z,6.60
2023-04-10T18:52:52.513Z,6.18
2023-04-10T18:55:21.198Z,6.38
2023-04-10T18:57:48.456Z,6.03
2023-04-10T19:00:15.933Z,6.10
2023-04-10T19:02:43.574Z,6.00
2023-04-10T19:05:14.380Z,6.35
2023-04-10T19:07:56.756Z,5.65
2023-04-10T19:10:28.311Z,5.63
2023-04-10T19:12:56.227Z,6.75
2023-04-10T19:15:24.465Z,6.30
2023-04-10T19:17:54.986Z,6.82
2023-04-10T19:20:52.358Z,6.82
2023-04-10T19:23:10.264Z,6.85
2023-04-10T19:25:37.381Z,6.65
2023-04-10T19:28:04.692Z,6.80
2023-04-10T19:30:31.863Z,6.38
2023-04-10T19:33:00.019Z,6.63
2023-04-10T19:35:27.316Z,6.70
2023-04-10T19:37:58.009Z,6.82
2023-04-10T19:40:25.322Z,7.17
2023-04-10T19:42:53.409Z,7.00
2023-04-10T19:45:27.331Z,6.65
2023-04-10T19:47:56.885Z,6.68
2023-04-10T19:50:24.199Z,7.22
2023-04-10T19:52:51.685Z,6.80
2023-04-10T19:55:19.239Z,6.88
2023-04-10T19:57:47.514Z,7.32
2023-04-10T20:00:15.519Z,7.72
2023-04-10T20:02:43.081Z,7.78
2023-04-10T20:05:10.564Z,7.23
2023-04-10T20:07:37.755Z,7.03
2023-04-10T20:10:05.427Z,6.82
2023-04-10T20:12:33.495Z,7.00
2023-04-10T20:15:02.051Z,6.88
2023-04-10T20:17:30.045Z,5.87
2023-04-10T20:19:57.415Z,7.28
2023-04-10T20:22:25.431Z,6.75
2023-04-10T20:24:52.759Z,7.05
2023-04-10T20:27:19.986Z,7.30
2023-04-10T20:29:47.124Z,6.87
2023-04-10T20:32:14.316Z,6.53
2023-04-10T20:34:41.497Z,7.22
2023-04-10T20:37:08.802Z,7.43
2023-04-10T20:39:37.759Z,7.63
2023-04-10T20:42:06.271Z,7.47
2023-04-10T20:44:36.996Z,7.53
2023-04-10T20:47:06.309Z,7.22
2023-04-10T20:49:33.553Z,7.45
2023-04-10T20:52:00.819Z,7.05
2023-04-10T20:54:27.915Z,6.87
2023-04-10T20:56:56.936Z,7.28
2023-04-10T20:59:25.109Z,8.00
2023-04-10T21:01:52.656Z,8.45
2023-04-10T21:04:20.154Z,7.90
2023-04-10T21:06:47.341Z,7.87
2023-04-10T21:09:15.485Z,7.10
2023-04-10T21:11:42.767Z,7.55
2023-04-10T21:14:10.886Z,7.07
2023-04-10T21:16:42.345Z,7.55
2023-04-10T21:19:09.713Z,7.70
2023-04-10T21:21:37.266Z,8.63
2023-04-10T21:24:04.794Z,8.13
2023-04-10T21:26:31.968Z,7.97
2023-04-10T21:28:59.243Z,7.95
2023-04-10T21:31:27.043Z,7.40
2023-04-10T21:33:54.229Z,7.47
2023-04-10T21:36:21.503Z,7.20
2023-04-10T21:38:48.729Z,7.40
2023-04-10T21:41:16.582Z,7.22
2023-04-10T21:43:43.820Z,7.23
2023-04-10T21:46:11.124Z,7.18
2023-04-10T21:48:39.071Z,7.22
2023-04-10T21:51:06.532Z,7.13
2023-04-10T21:53:33.764Z,8.20
2023-04-10T21:56:00.991Z,7.17
2023-04-10T21:58:29.493Z,7.68
2023-04-10T22:00:56.666Z,7.75
2023-04-10T22:03:24.056Z,8.65
2023-04-10T22:05:51.430Z,8.30
2023-04-10T22:08:20.139Z,8.57
2023-04-10T22:10:48.160Z,7.85
2023-04-10T22:13:29.776Z,7.90
2023-04-10T22:15:59.957Z,8.45
2023-04-10T22:18:27.297Z,7.78
2023-04-10T22:20:54.899Z,7.90
2023-04-10T22:23:22.183Z,8.55
2023-04-10T22:25:49.460Z,7.55
2023-04-10T22:28:16.689Z,7.97
2023-04-10T22:30:45.660Z,8.68
2023-04-10T22:33:12.984Z,8.50
2023-04-10T22:35:40.720Z,8.85
2023-04-10T22:38:07.884Z,8.55
2023-04-10T22:40:35.188Z,9.07
2023-04-10T22:43:02.565Z,8.88
2023-04-10T22:45:29.799Z,8.43
2023-04-10T22:47:56.958Z,8.88
2023-04-10T22:50:25.105Z,8.70
2023-04-10T22:52:52.221Z,8.88
2023-04-10T22:55:19.612Z,8.95
2023-04-10T22:57:48.672Z,9.93
2023-04-10T23:00:16.460Z,9.32
2023-04-10T23:02:43.814Z,10.20
2023-04-10T23:05:11.142Z,9.35
2023-04-10T23:07:40.410Z,9.50
2023-04-10T23:10:08.346Z,9.33
2023-04-10T23:12:35.478Z,9.63
2023-04-10T23:15:05.003Z,10.00
2023-04-10T23:17:32.240Z,10.63
2023-04-10T23:19:59.486Z,8.93
2023-04-10T23:22:28.851Z,9.27
2023-04-10T23:24:56.884Z,10.10
2023-04-10T23:27:24.200Z,9.45
2023-04-10T23:29:51.384Z,9.68
2023-04-10T23:32:18.540Z,10.57
2023-04-10T23:34:46.567Z,9.43
2023-04-10T23:37:13.678Z,9.60
2023-04-10T23:39:40.915Z,10.27
2023-04-10T23:42:08.107Z,10.43
2023-04-10T23:44:35.793Z,9.95
2023-04-10T23:47:03.256Z,9.40
2023-04-10T23:49:30.609Z,10.05
2023-04-10T23:51:57.955Z,9.75
2023-04-10T23:54:25.260Z,10.48
2023-04-10T23:56:52.512Z,9.27
2023-04-10T23:59:20.759Z,9.83
